sensor_id;sensor_type;location;lat;lon;timestamp;temperature;humidity
48860;DHT22;34679;51.436;-2.518;2023-02-15T00:01:46;4.90;99.90
48860;DHT22;34679;51.436;-2.518;2023-02-15T00:04:16;4.90;99.90
48860;DHT22;34679;51.436;-2.518;2023-02-15T00:06:42;4.90;99.90
48860;DHT22;34679;51.436;-2.518;2023-02-15T00:09:09;5.00;99.90
48860;DHT22;34679;51.436;-2.518;2023-02-15T00:11:35;5.00;99.90
48860;DHT22;34679;51.436;-2.518;2023-02-15T00:14:23;5.00;99.90
48860;DHT22;34679;51.436;-2.518;2023-02-15T00:16:51;5.00;99.90
48860;DHT22;34679;51.436;-2.518;2023-02-15T00:19:19;5.10;99.90
48860;DHT22;34679;51.436;-2.518;2023-02-15T00:21:45;5.10;99.90
48860;DHT22;34679;51.436;-2.518;2023-02-15T00:24:12;5.10;99.90
48860;DHT22;34679;51.436;-2.518;2023-02-15T00:26:40;5.20;99.90
48860;DHT22;34679;51.436;-2.518;2023-02-15T00:29:06;5.30;99.90
48860;DHT22;34679;51.436;-2.518;2023-02-15T00:31:33;5.30;99.90
48860;DHT22;34679;51.436;-2.518;2023-02-15T00:34:22;5.20;99.90
48860;DHT22;34679;51.436;-2.518;2023-02-15T00:36:48;5.20;99.90
48860;DHT22;34679;51.436;-2.518;2023-02-15T00:39:14;5.10;99.90
48860;DHT22;34679;51.436;-2.518;2023-02-15T00:41:40;5.20;99.90
48860;DHT22;34679;51.436;-2.518;2023-02-15T00:44:07;5.20;99.90
48860;DHT22;34679;51.436;-2.518;2023-02-15T00:46:33;5.10;99.90
48860;DHT22;34679;51.436;-2.518;2023-02-15T00:48:59;5.10;99.90
48860;DHT22;34679;51.436;-2.518;2023-02-15T00:51:24;5.10;99.90
48860;DHT22;34679;51.436;-2.518;2023-02-15T00:53:50;5.10;99.90
48860;DHT22;34679;51.436;-2.518;2023-02-15T00:56:16;5.00;99.90
48860;DHT22;34679;51.436;-2.518;2023-02-15T00:58:42;5.10;99.90
48860;DHT22;34679;51.436;-2.518;2023-02-15T01:01:11;5.10;99.90
48860;DHT22;34679;51.436;-2.518;2023-02-15T01:03:37;5.00;99.90
48860;DHT22;34679;51.436;-2.518;2023-02-15T01:06:04;5.00;99.90
48860;DHT22;34679;51.436;-2.518;2023-02-15T01:08:30;4.90;99.90
48860;DHT22;34679;51.436;-2.518;2023-02-15T01:10:56;5.00;99.90
48860;DHT22;34679;51.436;-2.518;2023-02-15T01:13:22;4.90;99.90
48860;DHT22;34679;51.436;-2.518;2023-02-15T01:15:55;4.90;99.90
48860;DHT22;34679;51.436;-2.518;2023-02-15T01:18:21;4.90;99.90
48860;DHT22;34679;51.436;-2.518;2023-02-15T01:20:47;4.80;99.90
48860;DHT22;34679;51.436;-2.518;2023-02-15T01:23:13;4.80;99.90
48860;DHT22;34679;51.436;-2.518;2023-02-15T01:25:38;4.80;99.90
48860;DHT22;34679;51.436;-2.518;2023-02-15T01:28:05;4.90;99.90
48860;DHT22;34679;51.436;-2.518;2023-02-15T01:30:31;4.90;99.90
48860;DHT22;34679;51.436;-2.518;2023-02-15T01:32:57;4.90;99.90
48860;DHT22;34679;51.436;-2.518;2023-02-15T01:35:23;4.90;99.90
48860;DHT22;34679;51.436;-2.518;2023-02-15T01:37:49;5.00;99.90
48860;DHT22;34679;51.436;-2.518;2023-02-15T01:40:16;5.00;99.90
48860;DHT22;34679;51.436;-2.518;2023-02-15T01:42:42;5.00;99.90
48860;DHT22;34679;51.436;-2.518;2023-02-15T01:45:27;5.00;99.90
48860;DHT22;34679;51.436;-2.518;2023-02-15T01:48:19;5.00;99.90
48860;DHT22;34679;51.436;-2.518;2023-02-15T01:50:59;5.00;99.90
48860;DHT22;34679;51.436;-2.518;2023-02-15T01:53:35;5.00;99.90
48860;DHT22;34679;51.436;-2.518;2023-02-15T01:56:08;5.10;99.90
48860;DHT22;34679;51.436;-2.518;2023-02-15T01:58:37;5.10;99.90
48860;DHT22;34679;51.436;-2.518;2023-02-15T02:01:04;5.10;99.90
48860;DHT22;34679;51.436;-2.518;2023-02-15T02:04:14;5.10;99.90
48860;DHT22;34679;51.436;-2.518;2023-02-15T02:06:41;5.00;99.90
48860;DHT22;34679;51.436;-2.518;2023-02-15T02:09:07;4.90;99.90
48860;DHT22;34679;51.436;-2.518;2023-02-15T02:11:34;4.90;99.90
48860;DHT22;34679;51.436;-2.518;2023-02-15T02:14:00;4.90;99.90
48860;DHT22;34679;51.436;-2.518;2023-02-15T02:16:36;4.90;99.90
48860;DHT22;34679;51.436;-2.518;2023-02-15T02:35:38;4.80;99.90
48860;DHT22;34679;51.436;-2.518;2023-02-15T02:46:11;4.90;99.90
48860;DHT22;34679;51.436;-2.518;2023-02-15T02:48:39;4.90;99.90
48860;DHT22;34679;51.436;-2.518;2023-02-15T02:51:05;4.90;99.90
48860;DHT22;34679;51.436;-2.518;2023-02-15T02:53:31;4.90;99.90
48860;DHT22;34679;51.436;-2.518;2023-02-15T02:58:43;4.90;99.90
48860;DHT22;34679;51.436;-2.518;2023-02-15T03:03:38;4.90;99.90
48860;DHT22;34679;51.436;-2.518;2023-02-15T03:06:11;4.90;99.90
48860;DHT22;34679;51.436;-2.518;2023-02-15T03:08:42;4.90;99.90
48860;DHT22;34679;51.436;-2.518;2023-02-15T03:11:08;4.90;99.90
48860;DHT22;34679;51.436;-2.518;2023-02-15T03:13:34;4.80;99.90
48860;DHT22;34679;51.436;-2.518;2023-02-15T03:16:01;4.80;99.90
48860;DHT22;34679;51.436;-2.518;2023-02-15T03:18:51;4.70;99.90
48860;DHT22;34679;51.436;-2.518;2023-02-15T03:24:12;4.60;99.90
48860;DHT22;34679;51.436;-2.518;2023-02-15T03:26:42;4.50;99.90
48860;DHT22;34679;51.436;-2.518;2023-02-15T03:29:10;4.40;99.90
48860;DHT22;34679;51.436;-2.518;2023-02-15T03:31:40;4.40;99.90
48860;DHT22;34679;51.436;-2.518;2023-02-15T03:34:10;4.30;99.90
48860;DHT22;34679;51.436;-2.518;2023-02-15T03:39:48;4.20;99.90
48860;DHT22;34679;51.436;-2.518;2023-02-15T03:42:22;4.10;99.90
48860;DHT22;34679;51.436;-2.518;2023-02-15T03:45:01;4.10;99.90
48860;DHT22;34679;51.436;-2.518;2023-02-15T03:47:37;4.10;99.90
48860;DHT22;34679;51.436;-2.518;2023-02-15T03:50:12;4.00;99.90
48860;DHT22;34679;51.436;-2.518;2023-02-15T03:52:59;4.00;99.90
48860;DHT22;34679;51.436;-2.518;2023-02-15T03:55:26;4.10;99.90
48860;DHT22;34679;51.436;-2.518;2023-02-15T03:57:52;4.00;99.90
48860;DHT22;34679;51.436;-2.518;2023-02-15T04:00:48;3.90;99.90
48860;DHT22;34679;51.436;-2.518;2023-02-15T04:03:39;3.80;99.90
48860;DHT22;34679;51.436;-2.518;2023-02-15T04:06:06;3.80;99.90
48860;DHT22;34679;51.436;-2.518;2023-02-15T04:08:32;3.80;99.90
48860;DHT22;34679;51.436;-2.518;2023-02-15T04:11:16;3.70;99.90
48860;DHT22;34679;51.436;-2.518;2023-02-15T04:13:42;3.70;99.90
48860;DHT22;34679;51.436;-2.518;2023-02-15T04:16:08;3.60;99.90
48860;DHT22;34679;51.436;-2.518;2023-02-15T04:18:41;3.70;99.90
48860;DHT22;34679;51.436;-2.518;2023-02-15T04:21:28;3.60;99.90
48860;DHT22;34679;51.436;-2.518;2023-02-15T04:24:13;3.70;99.90
48860;DHT22;34679;51.436;-2.518;2023-02-15T04:26:57;3.70;99.90
48860;DHT22;34679;51.436;-2.518;2023-02-15T04:29:26;3.70;99.90
48860;DHT22;34679;51.436;-2.518;2023-02-15T04:31:53;3.80;99.90
48860;DHT22;34679;51.436;-2.518;2023-02-15T04:34:19;3.90;99.90
48860;DHT22;34679;51.436;-2.518;2023-02-15T04:36:45;3.90;99.90
48860;DHT22;34679;51.436;-2.518;2023-02-15T04:39:15;4.00;99.90
48860;DHT22;34679;51.436;-2.518;2023-02-15T04:41:41;4.00;99.90
48860;DHT22;34679;51.436;-2.518;2023-02-15T04:44:07;3.90;99.90
48860;DHT22;34679;51.436;-2.518;2023-02-15T04:46:33;4.00;99.90
48860;DHT22;34679;51.436;-2.518;2023-02-15T04:48:59;4.10;99.90
48860;DHT22;34679;51.436;-2.518;2023-02-15T04:51:25;4.00;99.90
48860;DHT22;34679;51.436;-2.518;2023-02-15T04:53:51;4.00;99.90
48860;DHT22;34679;51.436;-2.518;2023-02-15T04:56:21;4.00;99.90
48860;DHT22;34679;51.436;-2.518;2023-02-15T04:58:47;4.00;99.90
48860;DHT22;34679;51.436;-2.518;2023-02-15T05:01:14;4.00;99.90
48860;DHT22;34679;51.436;-2.518;2023-02-15T05:03:39;4.20;99.90
48860;DHT22;34679;51.436;-2.518;2023-02-15T05:06:05;4.30;99.90
48860;DHT22;34679;51.436;-2.518;2023-02-15T05:08:31;4.20;99.90
48860;DHT22;34679;51.436;-2.518;2023-02-15T05:10:57;4.10;99.90
48860;DHT22;34679;51.436;-2.518;2023-02-15T05:13:23;3.90;99.90
48860;DHT22;34679;51.436;-2.518;2023-02-15T05:15:52;3.80;99.90
48860;DHT22;34679;51.436;-2.518;2023-02-15T05:18:20;3.80;99.90
48860;DHT22;34679;51.436;-2.518;2023-02-15T05:20:46;3.70;99.90
48860;DHT22;34679;51.436;-2.518;2023-02-15T05:23:12;3.70;99.90
48860;DHT22;34679;51.436;-2.518;2023-02-15T05:25:38;3.70;99.90
48860;DHT22;34679;51.436;-2.518;2023-02-15T05:28:24;3.80;99.90
48860;DHT22;34679;51.436;-2.518;2023-02-15T05:31:06;4.00;99.90
48860;DHT22;34679;51.436;-2.518;2023-02-15T05:33:32;4.10;99.90
48860;DHT22;34679;51.436;-2.518;2023-02-15T05:35:58;4.20;99.90
48860;DHT22;34679;51.436;-2.518;2023-02-15T05:38:23;4.20;99.90
48860;DHT22;34679;51.436;-2.518;2023-02-15T05:40:51;4.30;99.90
48860;DHT22;34679;51.436;-2.518;2023-02-15T05:43:16;4.30;99.90
48860;DHT22;34679;51.436;-2.518;2023-02-15T05:45:50;4.30;99.90
48860;DHT22;34679;51.436;-2.518;2023-02-15T05:48:16;4.10;99.90
48860;DHT22;34679;51.436;-2.518;2023-02-15T05:50:42;3.90;99.90
48860;DHT22;34679;51.436;-2.518;2023-02-15T05:53:08;3.90;99.90
48860;DHT22;34679;51.436;-2.518;2023-02-15T05:55:34;3.90;99.90
48860;DHT22;34679;51.436;-2.518;2023-02-15T05:57:59;4.00;99.90
48860;DHT22;34679;51.436;-2.518;2023-02-15T06:00:25;4.00;99.90
48860;DHT22;34679;51.436;-2.518;2023-02-15T06:02:51;4.00;99.90
48860;DHT22;34679;51.436;-2.518;2023-02-15T06:05:16;4.00;99.90
48860;DHT22;34679;51.436;-2.518;2023-02-15T06:07:43;4.10;99.90
48860;DHT22;34679;51.436;-2.518;2023-02-15T06:10:10;4.10;99.90
48860;DHT22;34679;51.436;-2.518;2023-02-15T06:12:36;4.10;99.90
48860;DHT22;34679;51.436;-2.518;2023-02-15T06:15:02;4.10;99.90
48860;DHT22;34679;51.436;-2.518;2023-02-15T06:17:28;4.20;99.90
48860;DHT22;34679;51.436;-2.518;2023-02-15T06:19:54;4.30;99.90
48860;DHT22;34679;51.436;-2.518;2023-02-15T06:22:19;4.20;99.90
48860;DHT22;34679;51.436;-2.518;2023-02-15T06:24:46;4.20;99.90
48860;DHT22;34679;51.436;-2.518;2023-02-15T06:27:11;4.30;99.90
48860;DHT22;34679;51.436;-2.518;2023-02-15T06:29:37;4.30;99.90
48860;DHT22;34679;51.436;-2.518;2023-02-15T06:32:03;4.30;99.90
48860;DHT22;34679;51.436;-2.518;2023-02-15T06:34:29;4.30;99.90
48860;DHT22;34679;51.436;-2.518;2023-02-15T06:36:55;4.30;99.90
48860;DHT22;34679;51.436;-2.518;2023-02-15T06:39:21;4.30;99.90
48860;DHT22;34679;51.436;-2.518;2023-02-15T06:41:46;4.30;99.90
48860;DHT22;34679;51.436;-2.518;2023-02-15T06:44:12;4.30;99.90
48860;DHT22;34679;51.436;-2.518;2023-02-15T06:46:38;4.30;99.90
48860;DHT22;34679;51.436;-2.518;2023-02-15T06:49:04;4.40;99.90
48860;DHT22;34679;51.436;-2.518;2023-02-15T06:51:29;4.50;99.90
48860;DHT22;34679;51.436;-2.518;2023-02-15T06:53:55;4.50;99.90
48860;DHT22;34679;51.436;-2.518;2023-02-15T06:56:21;4.50;99.90
48860;DHT22;34679;51.436;-2.518;2023-02-15T06:58:46;4.50;99.90
48860;DHT22;34679;51.436;-2.518;2023-02-15T07:01:14;4.50;99.90
48860;DHT22;34679;51.436;-2.518;2023-02-15T07:03:40;4.50;99.90
48860;DHT22;34679;51.436;-2.518;2023-02-15T07:06:06;4.50;99.90
48860;DHT22;34679;51.436;-2.518;2023-02-15T07:08:37;4.50;99.90
48860;DHT22;34679;51.436;-2.518;2023-02-15T07:11:04;4.50;99.90
48860;DHT22;34679;51.436;-2.518;2023-02-15T07:13:48;4.50;99.90
48860;DHT22;34679;51.436;-2.518;2023-02-15T07:16:14;4.60;99.90
48860;DHT22;34679;51.436;-2.518;2023-02-15T07:18:40;4.60;99.90
48860;DHT22;34679;51.436;-2.518;2023-02-15T07:21:06;4.60;99.90
48860;DHT22;34679;51.436;-2.518;2023-02-15T07:23:38;4.70;99.90
48860;DHT22;34679;51.436;-2.518;2023-02-15T07:26:05;4.80;99.90
48860;DHT22;34679;51.436;-2.518;2023-02-15T07:28:33;4.80;99.90
48860;DHT22;34679;51.436;-2.518;2023-02-15T07:31:04;5.00;99.90
48860;DHT22;34679;51.436;-2.518;2023-02-15T07:33:34;5.00;99.90
48860;DHT22;34679;51.436;-2.518;2023-02-15T07:36:02;5.10;99.90
48860;DHT22;34679;51.436;-2.518;2023-02-15T07:38:31;5.00;99.90
48860;DHT22;34679;51.436;-2.518;2023-02-15T07:41:02;5.00;99.90
48860;DHT22;34679;51.436;-2.518;2023-02-15T07:43:29;5.10;99.90
48860;DHT22;34679;51.436;-2.518;2023-02-15T07:45:58;5.10;99.90
48860;DHT22;34679;51.436;-2.518;2023-02-15T07:48:24;5.20;99.90
48860;DHT22;34679;51.436;-2.518;2023-02-15T07:50:50;5.10;99.90
48860;DHT22;34679;51.436;-2.518;2023-02-15T07:53:15;5.10;99.90
48860;DHT22;34679;51.436;-2.518;2023-02-15T07:55:41;5.10;99.90
48860;DHT22;34679;51.436;-2.518;2023-02-15T07:58:07;5.10;99.90
48860;DHT22;34679;51.436;-2.518;2023-02-15T08:00:32;5.20;99.90
48860;DHT22;34679;51.436;-2.518;2023-02-15T08:03:18;5.30;99.90
48860;DHT22;34679;51.436;-2.518;2023-02-15T08:05:44;5.70;99.90
48860;DHT22;34679;51.436;-2.518;2023-02-15T08:08:11;5.80;99.90
48860;DHT22;34679;51.436;-2.518;2023-02-15T08:10:59;5.90;99.90
48860;DHT22;34679;51.436;-2.518;2023-02-15T08:13:45;6.10;99.90
48860;DHT22;34679;51.436;-2.518;2023-02-15T08:18:58;6.60;99.90
48860;DHT22;34679;51.436;-2.518;2023-02-15T08:21:26;7.10;99.90
48860;DHT22;34679;51.436;-2.518;2023-02-15T08:23:52;7.50;99.90
48860;DHT22;34679;51.436;-2.518;2023-02-15T08:26:18;7.90;99.90
48860;DHT22;34679;51.436;-2.518;2023-02-15T08:28:44;8.30;99.90
48860;DHT22;34679;51.436;-2.518;2023-02-15T08:31:12;8.70;99.90
48860;DHT22;34679;51.436;-2.518;2023-02-15T08:33:40;9.10;99.90
48860;DHT22;34679;51.436;-2.518;2023-02-15T08:36:08;9.40;99.90
48860;DHT22;34679;51.436;-2.518;2023-02-15T08:38:34;9.80;99.90
48860;DHT22;34679;51.436;-2.518;2023-02-15T08:41:11;10.20;99.90
48860;DHT22;34679;51.436;-2.518;2023-02-15T08:43:36;10.60;99.90
48860;DHT22;34679;51.436;-2.518;2023-02-15T08:46:03;10.90;99.90
48860;DHT22;34679;51.436;-2.518;2023-02-15T08:48:29;11.20;99.90
48860;DHT22;34679;51.436;-2.518;2023-02-15T08:50:54;11.50;99.90
48860;DHT22;34679;51.436;-2.518;2023-02-15T08:53:20;11.90;99.90
48860;DHT22;34679;51.436;-2.518;2023-02-15T08:55:54;12.10;99.90
48860;DHT22;34679;51.436;-2.518;2023-02-15T08:58:19;11.90;99.90
48860;DHT22;34679;51.436;-2.518;2023-02-15T09:00:45;12.10;99.90
48860;DHT22;34679;51.436;-2.518;2023-02-15T09:03:11;12.10;99.90
48860;DHT22;34679;51.436;-2.518;2023-02-15T09:05:37;12.50;99.90
48860;DHT22;34679;51.436;-2.518;2023-02-15T09:08:02;12.90;99.90
48860;DHT22;34679;51.436;-2.518;2023-02-15T09:10:28;13.00;99.90
48860;DHT22;34679;51.436;-2.518;2023-02-15T09:12:53;13.20;99.90
48860;DHT22;34679;51.436;-2.518;2023-02-15T09:15:19;13.30;99.90
48860;DHT22;34679;51.436;-2.518;2023-02-15T09:17:45;13.10;99.90
48860;DHT22;34679;51.436;-2.518;2023-02-15T09:20:10;12.70;99.90
48860;DHT22;34679;51.436;-2.518;2023-02-15T09:22:36;12.50;99.90
48860;DHT22;34679;51.436;-2.518;2023-02-15T09:25:02;12.40;99.90
48860;DHT22;34679;51.436;-2.518;2023-02-15T09:27:29;12.50;99.90
48860;DHT22;34679;51.436;-2.518;2023-02-15T09:29:54;12.80;99.90
48860;DHT22;34679;51.436;-2.518;2023-02-15T09:32:20;13.00;99.90
48860;DHT22;34679;51.436;-2.518;2023-02-15T09:34:47;13.30;99.90
48860;DHT22;34679;51.436;-2.518;2023-02-15T09:37:13;13.60;99.90
48860;DHT22;34679;51.436;-2.518;2023-02-15T09:39:41;13.90;99.90
48860;DHT22;34679;51.436;-2.518;2023-02-15T09:45:11;12.90;99.90
48860;DHT22;34679;51.436;-2.518;2023-02-15T09:50:59;13.00;99.90
48860;DHT22;34679;51.436;-2.518;2023-02-15T09:59:30;13.30;99.90
48860;DHT22;34679;51.436;-2.518;2023-02-15T10:11:16;12.20;99.90
48860;DHT22;34679;51.436;-2.518;2023-02-15T10:16:58;12.20;99.90
48860;DHT22;34679;51.436;-2.518;2023-02-15T10:19:44;12.20;99.90
48860;DHT22;34679;51.436;-2.518;2023-02-15T10:22:30;12.30;99.90
48860;DHT22;34679;51.436;-2.518;2023-02-15T10:25:12;12.40;99.90
48860;DHT22;34679;51.436;-2.518;2023-02-15T10:27:47;12.20;99.90
48860;DHT22;34679;51.436;-2.518;2023-02-15T10:30:52;12.30;99.90
48860;DHT22;34679;51.436;-2.518;2023-02-15T10:33:40;12.30;99.90
48860;DHT22;34679;51.436;-2.518;2023-02-15T10:38:51;12.30;99.90
48860;DHT22;34679;51.436;-2.518;2023-02-15T10:44:09;12.40;99.90
48860;DHT22;34679;51.436;-2.518;2023-02-15T10:49:43;12.40;99.90
48860;DHT22;34679;51.436;-2.518;2023-02-15T10:58:11;12.50;99.90
48860;DHT22;34679;51.436;-2.518;2023-02-15T11:00:41;12.50;99.90
48860;DHT22;34679;51.436;-2.518;2023-02-15T11:03:29;12.50;99.90
48860;DHT22;34679;51.436;-2.518;2023-02-15T11:06:02;12.50;99.90
48860;DHT22;34679;51.436;-2.518;2023-02-15T11:08:35;12.60;99.90
48860;DHT22;34679;51.436;-2.518;2023-02-15T11:11:06;12.50;99.90
48860;DHT22;34679;51.436;-2.518;2023-02-15T11:13:38;12.60;99.90
48860;DHT22;34679;51.436;-2.518;2023-02-15T11:16:17;12.60;99.90
48860;DHT22;34679;51.436;-2.518;2023-02-15T11:18:51;12.70;99.90
48860;DHT22;34679;51.436;-2.518;2023-02-15T11:21:33;12.70;99.90
48860;DHT22;34679;51.436;-2.518;2023-02-15T11:24:09;12.70;99.90
48860;DHT22;34679;51.436;-2.518;2023-02-15T11:29:33;12.90;99.90
48860;DHT22;34679;51.436;-2.518;2023-02-15T11:32:20;12.80;99.90
48860;DHT22;34679;51.436;-2.518;2023-02-15T11:34:58;12.80;99.90
48860;DHT22;34679;51.436;-2.518;2023-02-15T11:37:40;12.80;99.90
48860;DHT22;34679;51.436;-2.518;2023-02-15T11:40:57;12.90;99.90
48860;DHT22;34679;51.436;-2.518;2023-02-15T11:45:49;12.90;99.90
48860;DHT22;34679;51.436;-2.518;2023-02-15T11:48:15;13.00;99.90
48860;DHT22;34679;51.436;-2.518;2023-02-15T11:50:43;13.00;99.90
48860;DHT22;34679;51.436;-2.518;2023-02-15T11:53:13;13.10;99.90
48860;DHT22;34679;51.436;-2.518;2023-02-15T11:55:43;13.20;99.90
48860;DHT22;34679;51.436;-2.518;2023-02-15T11:58:36;13.30;99.90
48860;DHT22;34679;51.436;-2.518;2023-02-15T12:03:39;13.50;99.90
48860;DHT22;34679;51.436;-2.518;2023-02-15T12:06:34;13.50;99.90
48860;DHT22;34679;51.436;-2.518;2023-02-15T12:11:38;13.70;99.90
48860;DHT22;34679;51.436;-2.518;2023-02-15T12:14:09;13.70;99.90
48860;DHT22;34679;51.436;-2.518;2023-02-15T12:16:49;13.60;99.90
48860;DHT22;34679;51.436;-2.518;2023-02-15T12:21:52;13.80;99.90
48860;DHT22;34679;51.436;-2.518;2023-02-15T12:24:21;13.80;99.90
48860;DHT22;34679;51.436;-2.518;2023-02-15T12:27:24;13.80;99.90
48860;DHT22;34679;51.436;-2.518;2023-02-15T12:29:56;13.90;99.90
48860;DHT22;34679;51.436;-2.518;2023-02-15T12:32:28;14.00;99.90
48860;DHT22;34679;51.436;-2.518;2023-02-15T12:35:00;14.00;99.90
48860;DHT22;34679;51.436;-2.518;2023-02-15T12:37:29;14.10;99.90
48860;DHT22;34679;51.436;-2.518;2023-02-15T12:40:11;14.10;99.90
48860;DHT22;34679;51.436;-2.518;2023-02-15T12:42:44;14.10;99.90
48860;DHT22;34679;51.436;-2.518;2023-02-15T12:45:42;14.00;99.90
48860;DHT22;34679;51.436;-2.518;2023-02-15T12:48:15;14.00;99.90
48860;DHT22;34679;51.436;-2.518;2023-02-15T12:50:50;14.10;99.90
48860;DHT22;34679;51.436;-2.518;2023-02-15T12:53:36;14.30;99.90
48860;DHT22;34679;51.436;-2.518;2023-02-15T12:56:08;14.30;99.90
48860;DHT22;34679;51.436;-2.518;2023-02-15T12:58:39;14.50;99.90
48860;DHT22;34679;51.436;-2.518;2023-02-15T13:01:15;14.60;99.90
48860;DHT22;34679;51.436;-2.518;2023-02-15T13:04:08;14.80;99.90
48860;DHT22;34679;51.436;-2.518;2023-02-15T13:06:47;14.80;99.90
48860;DHT22;34679;51.436;-2.518;2023-02-15T13:12:27;14.70;99.90
48860;DHT22;34679;51.436;-2.518;2023-02-15T13:14:56;14.70;99.90
48860;DHT22;34679;51.436;-2.518;2023-02-15T13:17:32;14.70;99.90
48860;DHT22;34679;51.436;-2.518;2023-02-15T13:20:26;15.00;99.90
48860;DHT22;34679;51.436;-2.518;2023-02-15T13:23:03;15.30;99.90
48860;DHT22;34679;51.436;-2.518;2023-02-15T13:25:36;15.30;99.90
48860;DHT22;34679;51.436;-2.518;2023-02-15T13:28:05;15.20;99.90
48860;DHT22;34679;51.436;-2.518;2023-02-15T13:30:41;15.00;99.90
48860;DHT22;34679;51.436;-2.518;2023-02-15T13:33:31;14.90;99.90
48860;DHT22;34679;51.436;-2.518;2023-02-15T13:39:10;14.60;99.90
48860;DHT22;34679;51.436;-2.518;2023-02-15T13:47:10;14.00;99.90
48860;DHT22;34679;51.436;-2.518;2023-02-15T13:55:40;14.00;99.90
48860;DHT22;34679;51.436;-2.518;2023-02-15T13:58:51;14.00;99.90
48860;DHT22;34679;51.436;-2.518;2023-02-15T14:04:39;13.80;99.90
48860;DHT22;34679;51.436;-2.518;2023-02-15T14:15:44;13.70;99.90
48860;DHT22;34679;51.436;-2.518;2023-02-15T14:18:15;13.90;99.90
48860;DHT22;34679;51.436;-2.518;2023-02-15T14:20:51;13.90;99.90
48860;DHT22;34679;51.436;-2.518;2023-02-15T14:26:21;13.70;99.90
48860;DHT22;34679;51.436;-2.518;2023-02-15T14:31:47;13.50;99.90
48860;DHT22;34679;51.436;-2.518;2023-02-15T14:36:50;13.40;99.90
48860;DHT22;34679;51.436;-2.518;2023-02-15T14:39:36;13.30;99.90
48860;DHT22;34679;51.436;-2.518;2023-02-15T14:42:47;13.20;99.90
48860;DHT22;34679;51.436;-2.518;2023-02-15T14:48:16;13.00;99.90
48860;DHT22;34679;51.436;-2.518;2023-02-15T14:50:45;12.90;99.90
48860;DHT22;34679;51.436;-2.518;2023-02-15T14:58:55;12.60;99.90
48860;DHT22;34679;51.436;-2.518;2023-02-15T15:01:30;12.40;99.90
48860;DHT22;34679;51.436;-2.518;2023-02-15T15:04:03;12.30;99.90
48860;DHT22;34679;51.436;-2.518;2023-02-15T15:06:32;11.90;99.90
48860;DHT22;34679;51.436;-2.518;2023-02-15T15:09:11;11.50;99.90
48860;DHT22;34679;51.436;-2.518;2023-02-15T15:11:45;11.40;99.90
48860;DHT22;34679;51.436;-2.518;2023-02-15T15:16:57;11.30;99.90
48860;DHT22;34679;51.436;-2.518;2023-02-15T15:22:22;11.20;99.90
48860;DHT22;34679;51.436;-2.518;2023-02-15T15:28:11;11.00;99.90
48860;DHT22;34679;51.436;-2.518;2023-02-15T15:41:08;10.60;99.90
48860;DHT22;34679;51.436;-2.518;2023-02-15T15:49:45;10.50;99.90
48860;DHT22;34679;51.436;-2.518;2023-02-15T15:52:19;10.40;99.90
48860;DHT22;34679;51.436;-2.518;2023-02-15T15:54:48;10.30;99.90
48860;DHT22;34679;51.436;-2.518;2023-02-15T15:57:22;10.10;99.90
48860;DHT22;34679;51.436;-2.518;2023-02-15T15:59:51;10.10;99.90
48860;DHT22;34679;51.436;-2.518;2023-02-15T16:02:17;10.10;99.90
48860;DHT22;34679;51.436;-2.518;2023-02-15T16:04:44;10.10;99.90
48860;DHT22;34679;51.436;-2.518;2023-02-15T16:07:28;10.00;99.90
48860;DHT22;34679;51.436;-2.518;2023-02-15T16:10:02;9.90;99.90
48860;DHT22;34679;51.436;-2.518;2023-02-15T16:12:31;9.90;99.90
48860;DHT22;34679;51.436;-2.518;2023-02-15T16:15:11;9.80;99.90
48860;DHT22;34679;51.436;-2.518;2023-02-15T16:17:41;9.70;99.90
48860;DHT22;34679;51.436;-2.518;2023-02-15T16:20:23;9.60;99.90
48860;DHT22;34679;51.436;-2.518;2023-02-15T16:28:11;9.70;99.90
48860;DHT22;34679;51.436;-2.518;2023-02-15T16:30:38;9.80;99.90
48860;DHT22;34679;51.436;-2.518;2023-02-15T16:33:13;9.80;99.90
48860;DHT22;34679;51.436;-2.518;2023-02-15T16:35:57;9.70;99.90
48860;DHT22;34679;51.436;-2.518;2023-02-15T16:41:11;9.70;99.90
48860;DHT22;34679;51.436;-2.518;2023-02-15T16:43:37;9.60;99.90
48860;DHT22;34679;51.436;-2.518;2023-02-15T16:46:27;9.70;99.90
48860;DHT22;34679;51.436;-2.518;2023-02-15T16:48:52;9.70;99.90
48860;DHT22;34679;51.436;-2.518;2023-02-15T16:51:25;9.70;99.90
48860;DHT22;34679;51.436;-2.518;2023-02-15T16:53:52;9.70;99.90
48860;DHT22;34679;51.436;-2.518;2023-02-15T16:56:27;9.70;99.90
48860;DHT22;34679;51.436;-2.518;2023-02-15T16:58:54;9.70;99.90
48860;DHT22;34679;51.436;-2.518;2023-02-15T17:01:24;9.60;99.90
48860;DHT22;34679;51.436;-2.518;2023-02-15T17:03:52;9.60;99.90
48860;DHT22;34679;51.436;-2.518;2023-02-15T17:06:35;9.60;99.90
48860;DHT22;34679;51.436;-2.518;2023-02-15T17:09:15;9.70;99.90
48860;DHT22;34679;51.436;-2.518;2023-02-15T17:11:44;9.70;99.90
48860;DHT22;34679;51.436;-2.518;2023-02-15T17:14:11;9.70;99.90
48860;DHT22;34679;51.436;-2.518;2023-02-15T17:16:49;9.70;99.90
48860;DHT22;34679;51.436;-2.518;2023-02-15T17:19:22;9.70;99.90
48860;DHT22;34679;51.436;-2.518;2023-02-15T17:22:00;9.60;99.90
48860;DHT22;34679;51.436;-2.518;2023-02-15T17:24:41;9.60;99.90
48860;DHT22;34679;51.436;-2.518;2023-02-15T17:27:17;9.60;99.90
48860;DHT22;34679;51.436;-2.518;2023-02-15T17:29:47;9.60;99.90
48860;DHT22;34679;51.436;-2.518;2023-02-15T17:32:19;9.50;99.90
48860;DHT22;34679;51.436;-2.518;2023-02-15T17:35:24;9.40;99.90
48860;DHT22;34679;51.436;-2.518;2023-02-15T17:37:55;9.40;99.90
48860;DHT22;34679;51.436;-2.518;2023-02-15T17:40:27;9.30;99.90
48860;DHT22;34679;51.436;-2.518;2023-02-15T17:42:53;9.10;99.90
48860;DHT22;34679;51.436;-2.518;2023-02-15T17:45:20;9.00;99.90
48860;DHT22;34679;51.436;-2.518;2023-02-15T17:47:47;9.00;99.90
48860;DHT22;34679;51.436;-2.518;2023-02-15T17:50:26;8.90;99.90
48860;DHT22;34679;51.436;-2.518;2023-02-15T17:52:54;8.80;99.90
48860;DHT22;34679;51.436;-2.518;2023-02-15T17:55:22;8.70;99.90
48860;DHT22;34679;51.436;-2.518;2023-02-15T17:58:02;8.60;99.90
48860;DHT22;34679;51.436;-2.518;2023-02-15T18:00:32;8.50;99.90
48860;DHT22;34679;51.436;-2.518;2023-02-15T18:03:17;8.50;99.90
48860;DHT22;34679;51.436;-2.518;2023-02-15T18:06:02;8.40;99.90
48860;DHT22;34679;51.436;-2.518;2023-02-15T18:08:46;8.30;99.90
48860;DHT22;34679;51.436;-2.518;2023-02-15T18:11:31;8.20;99.90
48860;DHT22;34679;51.436;-2.518;2023-02-15T18:14:00;8.10;99.90
48860;DHT22;34679;51.436;-2.518;2023-02-15T18:16:29;8.00;99.90
48860;DHT22;34679;51.436;-2.518;2023-02-15T18:18:56;7.90;99.90
48860;DHT22;34679;51.436;-2.518;2023-02-15T18:21:23;7.90;99.90
48860;DHT22;34679;51.436;-2.518;2023-02-15T18:23:49;7.90;99.90
48860;DHT22;34679;51.436;-2.518;2023-02-15T18:26:23;7.80;99.90
48860;DHT22;34679;51.436;-2.518;2023-02-15T18:28:50;7.70;99.90
48860;DHT22;34679;51.436;-2.518;2023-02-15T18:31:17;7.70;99.90
48860;DHT22;34679;51.436;-2.518;2023-02-15T18:33:46;7.60;99.90
48860;DHT22;34679;51.436;-2.518;2023-02-15T18:36:43;7.50;99.90
48860;DHT22;34679;51.436;-2.518;2023-02-15T18:39:38;7.40;99.90
48860;DHT22;34679;51.436;-2.518;2023-02-15T18:42:08;7.30;99.90
48860;DHT22;34679;51.436;-2.518;2023-02-15T18:44:38;7.30;99.90